sensor_id;sensor_type;location;lat;lon;timestamp;temperature;humidity
18934;DHT22;9599;53.706;10.384;2023-03-31T00:01:24;11.10;99.90
18934;DHT22;9599;53.706;10.384;2023-03-31T00:03:52;11.00;99.90
18934;DHT22;9599;53.706;10.384;2023-03-31T00:06:33;11.00;99.90
18934;DHT22;9599;53.706;10.384;2023-03-31T00:09:04;11.00;99.90
18934;DHT22;9599;53.706;10.384;2023-03-31T00:11:33;11.00;99.90
18934;DHT22;9599;53.706;10.384;2023-03-31T00:14:01;11.00;99.90
18934;DHT22;9599;53.706;10.384;2023-03-31T00:16:29;10.90;99.90
18934;DHT22;9599;53.706;10.384;2023-03-31T00:18:57;10.80;99.90
18934;DHT22;9599;53.706;10.384;2023-03-31T00:21:27;10.90;99.90
18934;DHT22;9599;53.706;10.384;2023-03-31T00:24:01;10.90;99.90
18934;DHT22;9599;53.706;10.384;2023-03-31T00:26:30;10.90;99.90
18934;DHT22;9599;53.706;10.384;2023-03-31T00:28:59;10.90;99.90
18934;DHT22;9599;53.706;10.384;2023-03-31T00:31:28;10.90;99.90
18934;DHT22;9599;53.706;10.384;2023-03-31T00:33:56;10.90;99.90
18934;DHT22;9599;53.706;10.384;2023-03-31T00:36:26;10.90;99.90
18934;DHT22;9599;53.706;10.384;2023-03-31T00:38:55;10.90;99.90
18934;DHT22;9599;53.706;10.384;2023-03-31T00:41:26;10.90;99.90
18934;DHT22;9599;53.706;10.384;2023-03-31T00:44:05;10.90;99.90
18934;DHT22;9599;53.706;10.384;2023-03-31T00:46:39;10.90;99.90
18934;DHT22;9599;53.706;10.384;2023-03-31T00:49:14;10.90;99.90
18934;DHT22;9599;53.706;10.384;2023-03-31T00:51:43;10.90;99.90
18934;DHT22;9599;53.706;10.384;2023-03-31T00:54:12;10.90;99.90
18934;DHT22;9599;53.706;10.384;2023-03-31T00:56:44;11.00;99.90
18934;DHT22;9599;53.706;10.384;2023-03-31T00:59:15;11.00;99.90
18934;DHT22;9599;53.706;10.384;2023-03-31T01:01:45;10.90;99.90
18934;DHT22;9599;53.706;10.384;2023-03-31T01:04:16;10.90;99.90
18934;DHT22;9599;53.706;10.384;2023-03-31T01:06:54;10.90;99.90
18934;DHT22;9599;53.706;10.384;2023-03-31T01:09:28;10.90;99.90
18934;DHT22;9599;53.706;10.384;2023-03-31T01:12:02;10.90;99.90
18934;DHT22;9599;53.706;10.384;2023-03-31T01:14:33;10.80;99.90
18934;DHT22;9599;53.706;10.384;2023-03-31T01:17:01;10.80;99.90
18934;DHT22;9599;53.706;10.384;2023-03-31T01:19:47;10.80;99.90
18934;DHT22;9599;53.706;10.384;2023-03-31T01:22:56;10.80;99.90
18934;DHT22;9599;53.706;10.384;2023-03-31T01:28:49;10.90;99.90
18934;DHT22;9599;53.706;10.384;2023-03-31T01:31:46;10.90;99.90
18934;DHT22;9599;53.706;10.384;2023-03-31T01:34:56;10.80;99.90
18934;DHT22;9599;53.706;10.384;2023-03-31T01:37:55;10.80;99.90
18934;DHT22;9599;53.706;10.384;2023-03-31T01:40:47;10.80;99.90
18934;DHT22;9599;53.706;10.384;2023-03-31T01:43:20;10.80;99.90
18934;DHT22;9599;53.706;10.384;2023-03-31T01:45:54;10.80;99.90
18934;DHT22;9599;53.706;10.384;2023-03-31T01:48:32;10.80;99.90
18934;DHT22;9599;53.706;10.384;2023-03-31T01:51:05;10.80;99.90
18934;DHT22;9599;53.706;10.384;2023-03-31T01:53:39;10.80;99.90
18934;DHT22;9599;53.706;10.384;2023-03-31T01:56:16;10.80;99.90
18934;DHT22;9599;53.706;10.384;2023-03-31T01:58:51;10.80;99.90
18934;DHT22;9599;53.706;10.384;2023-03-31T02:01:23;10.80;99.90
18934;DHT22;9599;53.706;10.384;2023-03-31T02:03:54;10.80;99.90
18934;DHT22;9599;53.706;10.384;2023-03-31T02:06:27;10.80;99.90
18934;DHT22;9599;53.706;10.384;2023-03-31T02:09:00;10.80;99.90
18934;DHT22;9599;53.706;10.384;2023-03-31T02:11:32;10.90;99.90
18934;DHT22;9599;53.706;10.384;2023-03-31T02:14:04;10.90;99.90
18934;DHT22;9599;53.706;10.384;2023-03-31T02:16:37;10.90;99.90
18934;DHT22;9599;53.706;10.384;2023-03-31T02:19:08;11.00;99.90
18934;DHT22;9599;53.706;10.384;2023-03-31T02:21:39;11.00;99.90
18934;DHT22;9599;53.706;10.384;2023-03-31T02:24:10;10.90;99.90
18934;DHT22;9599;53.706;10.384;2023-03-31T02:26:44;10.90;99.90
18934;DHT22;9599;53.706;10.384;2023-03-31T02:29:17;11.00;99.90
18934;DHT22;9599;53.706;10.384;2023-03-31T02:31:47;11.00;99.90
18934;DHT22;9599;53.706;10.384;2023-03-31T02:34:16;11.00;99.90
18934;DHT22;9599;53.706;10.384;2023-03-31T02:36:45;11.00;99.90
18934;DHT22;9599;53.706;10.384;2023-03-31T02:39:16;11.00;99.90
18934;DHT22;9599;53.706;10.384;2023-03-31T02:41:47;11.00;99.90
18934;DHT22;9599;53.706;10.384;2023-03-31T02:44:16;11.00;99.90
18934;DHT22;9599;53.706;10.384;2023-03-31T02:46:45;11.00;99.90
18934;DHT22;9599;53.706;10.384;2023-03-31T02:49:15;11.00;99.90
18934;DHT22;9599;53.706;10.384;2023-03-31T02:51:59;11.00;99.90
18934;DHT22;9599;53.706;10.384;2023-03-31T02:54:49;11.10;99.90
18934;DHT22;9599;53.706;10.384;2023-03-31T02:57:45;11.00;99.90
18934;DHT22;9599;53.706;10.384;2023-03-31T03:00:24;11.10;99.90
18934;DHT22;9599;53.706;10.384;2023-03-31T03:03:03;11.00;99.90
18934;DHT22;9599;53.706;10.384;2023-03-31T03:05:39;11.00;99.90
18934;DHT22;9599;53.706;10.384;2023-03-31T03:08:38;10.90;99.90
18934;DHT22;9599;53.706;10.384;2023-03-31T03:11:13;10.90;99.90
18934;DHT22;9599;53.706;10.384;2023-03-31T03:13:50;10.90;99.90
18934;DHT22;9599;53.706;10.384;2023-03-31T03:16:22;10.90;99.90
18934;DHT22;9599;53.706;10.384;2023-03-31T03:18:56;10.90;99.90
18934;DHT22;9599;53.706;10.384;2023-03-31T03:21:25;10.90;99.90
18934;DHT22;9599;53.706;10.384;2023-03-31T03:23:53;10.90;99.90
18934;DHT22;9599;53.706;10.384;2023-03-31T03:26:21;10.90;99.90
18934;DHT22;9599;53.706;10.384;2023-03-31T03:28:55;10.90;99.90
18934;DHT22;9599;53.706;10.384;2023-03-31T03:31:23;10.90;99.90
18934;DHT22;9599;53.706;10.384;2023-03-31T03:33:52;10.80;99.90
18934;DHT22;9599;53.706;10.384;2023-03-31T03:36:20;10.80;99.90
18934;DHT22;9599;53.706;10.384;2023-03-31T03:38:49;10.80;99.90
18934;DHT22;9599;53.706;10.384;2023-03-31T03:41:17;10.80;99.90
18934;DHT22;9599;53.706;10.384;2023-03-31T03:43:45;10.70;99.90
18934;DHT22;9599;53.706;10.384;2023-03-31T03:46:14;10.70;99.90
18934;DHT22;9599;53.706;10.384;2023-03-31T03:48:42;10.70;99.90
18934;DHT22;9599;53.706;10.384;2023-03-31T03:51:10;10.70;99.90
18934;DHT22;9599;53.706;10.384;2023-03-31T03:53:37;10.70;99.90
18934;DHT22;9599;53.706;10.384;2023-03-31T03:56:05;10.70;99.90
18934;DHT22;9599;53.706;10.384;2023-03-31T03:58:34;10.80;99.90
18934;DHT22;9599;53.706;10.384;2023-03-31T04:01:02;10.70;99.90
18934;DHT22;9599;53.706;10.384;2023-03-31T04:03:31;10.70;99.90
18934;DHT22;9599;53.706;10.384;2023-03-31T04:05:59;10.70;99.90
18934;DHT22;9599;53.706;10.384;2023-03-31T04:08:27;10.70;99.90
18934;DHT22;9599;53.706;10.384;2023-03-31T04:10:55;10.60;99.90
18934;DHT22;9599;53.706;10.384;2023-03-31T04:13:23;10.60;99.90
18934;DHT22;9599;53.706;10.384;2023-03-31T04:15:51;10.70;99.90
18934;DHT22;9599;53.706;10.384;2023-03-31T04:18:19;10.60;99.90
18934;DHT22;9599;53.706;10.384;2023-03-31T04:20:51;10.60;99.90
18934;DHT22;9599;53.706;10.384;2023-03-31T04:23:30;10.60;99.90
18934;DHT22;9599;53.706;10.384;2023-03-31T04:25:58;10.50;99.90
18934;DHT22;9599;53.706;10.384;2023-03-31T04:28:26;10.50;99.90
18934;DHT22;9599;53.706;10.384;2023-03-31T04:31:02;10.50;99.90
18934;DHT22;9599;53.706;10.384;2023-03-31T04:33:31;10.50;99.90
18934;DHT22;9599;53.706;10.384;2023-03-31T04:36:06;10.50;99.90
18934;DHT22;9599;53.706;10.384;2023-03-31T04:38:43;10.50;99.90
18934;DHT22;9599;53.706;10.384;2023-03-31T04:41:12;10.50;99.90
18934;DHT22;9599;53.706;10.384;2023-03-31T04:43:40;10.50;99.90
18934;DHT22;9599;53.706;10.384;2023-03-31T04:46:08;10.50;99.90
18934;DHT22;9599;53.706;10.384;2023-03-31T04:48:37;10.50;99.90
18934;DHT22;9599;53.706;10.384;2023-03-31T04:51:07;10.50;99.90
18934;DHT22;9599;53.706;10.384;2023-03-31T04:53:36;10.40;99.90
18934;DHT22;9599;53.706;10.384;2023-03-31T04:56:04;10.50;99.90
18934;DHT22;9599;53.706;10.384;2023-03-31T04:58:33;10.50;99.90
18934;DHT22;9599;53.706;10.384;2023-03-31T05:01:01;10.50;99.90
18934;DHT22;9599;53.706;10.384;2023-03-31T05:03:32;10.50;99.90
18934;DHT22;9599;53.706;10.384;2023-03-31T05:06:00;10.60;99.90
18934;DHT22;9599;53.706;10.384;2023-03-31T05:08:29;10.50;99.90
18934;DHT22;9599;53.706;10.384;2023-03-31T05:10:57;10.60;99.90
18934;DHT22;9599;53.706;10.384;2023-03-31T05:13:25;10.50;99.90
18934;DHT22;9599;53.706;10.384;2023-03-31T05:15:53;10.50;99.90
18934;DHT22;9599;53.706;10.384;2023-03-31T05:18:21;10.50;99.90
18934;DHT22;9599;53.706;10.384;2023-03-31T05:20:49;10.60;99.90
18934;DHT22;9599;53.706;10.384;2023-03-31T05:23:17;10.70;99.90
18934;DHT22;9599;53.706;10.384;2023-03-31T05:25:47;10.70;99.90
18934;DHT22;9599;53.706;10.384;2023-03-31T05:28:15;10.70;99.90
18934;DHT22;9599;53.706;10.384;2023-03-31T05:30:43;10.70;99.90
18934;DHT22;9599;53.706;10.384;2023-03-31T05:33:11;10.80;99.90
18934;DHT22;9599;53.706;10.384;2023-03-31T05:35:39;10.80;99.90
18934;DHT22;9599;53.706;10.384;2023-03-31T05:38:07;10.80;99.90
18934;DHT22;9599;53.706;10.384;2023-03-31T05:40:35;10.90;99.90
18934;DHT22;9599;53.706;10.384;2023-03-31T05:43:04;10.90;99.90
18934;DHT22;9599;53.706;10.384;2023-03-31T05:45:32;10.90;99.90
18934;DHT22;9599;53.706;10.384;2023-03-31T05:48:00;10.90;99.90
18934;DHT22;9599;53.706;10.384;2023-03-31T05:50:28;10.90;99.90
18934;DHT22;9599;53.706;10.384;2023-03-31T05:52:56;10.90;99.90
18934;DHT22;9599;53.706;10.384;2023-03-31T05:55:25;10.90;99.90
18934;DHT22;9599;53.706;10.384;2023-03-31T05:57:53;10.90;99.90
18934;DHT22;9599;53.706;10.384;2023-03-31T06:00:22;10.90;99.90
18934;DHT22;9599;53.706;10.384;2023-03-31T06:02:50;10.90;99.90
18934;DHT22;9599;53.706;10.384;2023-03-31T06:05:18;10.90;99.90
18934;DHT22;9599;53.706;10.384;2023-03-31T06:07:49;10.90;99.90
18934;DHT22;9599;53.706;10.384;2023-03-31T06:10:17;10.90;99.90
18934;DHT22;9599;53.706;10.384;2023-03-31T06:12:45;10.90;99.90
18934;DHT22;9599;53.706;10.384;2023-03-31T06:15:13;10.90;99.90
18934;DHT22;9599;53.706;10.384;2023-03-31T06:17:42;10.90;99.90
18934;DHT22;9599;53.706;10.384;2023-03-31T06:20:11;10.90;99.90
18934;DHT22;9599;53.706;10.384;2023-03-31T06:22:53;11.00;99.90
18934;DHT22;9599;53.706;10.384;2023-03-31T06:25:21;11.10;99.90
18934;DHT22;9599;53.706;10.384;2023-03-31T06:27:49;11.20;99.90
18934;DHT22;9599;53.706;10.384;2023-03-31T06:30:17;11.20;99.90
18934;DHT22;9599;53.706;10.384;2023-03-31T06:32:47;11.20;99.90
18934;DHT22;9599;53.706;10.384;2023-03-31T06:35:15;11.30;99.90
18934;DHT22;9599;53.706;10.384;2023-03-31T06:37:43;11.30;99.90
18934;DHT22;9599;53.706;10.384;2023-03-31T06:40:12;11.30;99.90
18934;DHT22;9599;53.706;10.384;2023-03-31T06:42:39;11.30;99.90
18934;DHT22;9599;53.706;10.384;2023-03-31T06:45:08;11.40;99.90
18934;DHT22;9599;53.706;10.384;2023-03-31T06:47:36;11.50;99.90
18934;DHT22;9599;53.706;10.384;2023-03-31T06:50:07;11.60;99.90
18934;DHT22;9599;53.706;10.384;2023-03-31T06:52:36;11.70;99.90
18934;DHT22;9599;53.706;10.384;2023-03-31T06:55:07;11.70;99.90
18934;DHT22;9599;53.706;10.384;2023-03-31T06:57:35;11.70;99.90
18934;DHT22;9599;53.706;10.384;2023-03-31T07:00:05;11.80;99.90
18934;DHT22;9599;53.706;10.384;2023-03-31T07:02:33;11.80;99.90
18934;DHT22;9599;53.706;10.384;2023-03-31T07:05:03;11.70;99.90
18934;DHT22;9599;53.706;10.384;2023-03-31T07:07:34;11.60;99.90
18934;DHT22;9599;53.706;10.384;2023-03-31T07:10:02;11.60;99.90
18934;DHT22;9599;53.706;10.384;2023-03-31T07:12:31;11.70;99.90
18934;DHT22;9599;53.706;10.384;2023-03-31T07:14:59;11.70;99.90
18934;DHT22;9599;53.706;10.384;2023-03-31T07:17:27;11.60;99.90
18934;DHT22;9599;53.706;10.384;2023-03-31T07:19:55;11.70;99.90
18934;DHT22;9599;53.706;10.384;2023-03-31T07:22:23;11.60;99.90
18934;DHT22;9599;53.706;10.384;2023-03-31T07:24:53;11.60;99.90
18934;DHT22;9599;53.706;10.384;2023-03-31T07:27:21;11.60;99.90
18934;DHT22;9599;53.706;10.384;2023-03-31T07:29:52;11.60;99.90
18934;DHT22;9599;53.706;10.384;2023-03-31T07:32:20;11.60;99.90
18934;DHT22;9599;53.706;10.384;2023-03-31T07:34:49;11.60;99.90
18934;DHT22;9599;53.706;10.384;2023-03-31T07:37:17;11.70;99.90
18934;DHT22;9599;53.706;10.384;2023-03-31T07:39:45;11.80;99.90
18934;DHT22;9599;53.706;10.384;2023-03-31T07:42:14;12.00;99.90
18934;DHT22;9599;53.706;10.384;2023-03-31T07:44:42;12.10;99.90
18934;DHT22;9599;53.706;10.384;2023-03-31T07:47:10;12.20;99.90
18934;DHT22;9599;53.706;10.384;2023-03-31T07:49:38;12.40;99.90
18934;DHT22;9599;53.706;10.384;2023-03-31T07:52:05;12.40;99.90
18934;DHT22;9599;53.706;10.384;2023-03-31T07:54:33;12.40;99.90
18934;DHT22;9599;53.706;10.384;2023-03-31T07:57:01;12.30;99.90
18934;DHT22;9599;53.706;10.384;2023-03-31T07:59:32;12.40;99.90
18934;DHT22;9599;53.706;10.384;2023-03-31T08:02:00;12.50;99.90
18934;DHT22;9599;53.706;10.384;2023-03-31T08:04:28;12.60;99.90
18934;DHT22;9599;53.706;10.384;2023-03-31T08:06:56;12.70;99.90
18934;DHT22;9599;53.706;10.384;2023-03-31T08:09:24;12.80;99.90
18934;DHT22;9599;53.706;10.384;2023-03-31T08:11:52;12.70;99.90
18934;DHT22;9599;53.706;10.384;2023-03-31T08:14:20;12.70;99.90
18934;DHT22;9599;53.706;10.384;2023-03-31T08:17:07;12.60;99.90
18934;DHT22;9599;53.706;10.384;2023-03-31T08:19:35;12.70;99.90
18934;DHT22;9599;53.706;10.384;2023-03-31T08:22:06;12.70;99.90
18934;DHT22;9599;53.706;10.384;2023-03-31T08:24:34;12.60;99.90
18934;DHT22;9599;53.706;10.384;2023-03-31T08:27:02;12.60;99.90
18934;DHT22;9599;53.706;10.384;2023-03-31T08:29:30;12.60;99.90
18934;DHT22;9599;53.706;10.384;2023-03-31T08:31:58;12.60;99.90
18934;DHT22;9599;53.706;10.384;2023-03-31T08:34:27;12.60;99.90
18934;DHT22;9599;53.706;10.384;2023-03-31T08:36:55;12.50;99.90
18934;DHT22;9599;53.706;10.384;2023-03-31T08:39:23;12.50;99.90
18934;DHT22;9599;53.706;10.384;2023-03-31T08:41:57;12.50;99.90
18934;DHT22;9599;53.706;10.384;2023-03-31T08:44:31;12.50;99.90
18934;DHT22;9599;53.706;10.384;2023-03-31T08:47:04;12.40;99.90
18934;DHT22;9599;53.706;10.384;2023-03-31T08:49:38;12.40;99.90
18934;DHT22;9599;53.706;10.384;2023-03-31T08:52:12;12.40;99.90
18934;DHT22;9599;53.706;10.384;2023-03-31T08:54:43;12.40;99.90
18934;DHT22;9599;53.706;10.384;2023-03-31T08:57:17;12.30;99.90
18934;DHT22;9599;53.706;10.384;2023-03-31T08:59:47;12.30;99.90
18934;DHT22;9599;53.706;10.384;2023-03-31T09:02:20;12.20;99.90
18934;DHT22;9599;53.706;10.384;2023-03-31T09:05:04;12.20;99.90
18934;DHT22;9599;53.706;10.384;2023-03-31T09:07:45;12.20;99.90
18934;DHT22;9599;53.706;10.384;2023-03-31T09:10:26;12.20;99.90
18934;DHT22;9599;53.706;10.384;2023-03-31T09:13:03;12.30;99.90
18934;DHT22;9599;53.706;10.384;2023-03-31T09:15:38;12.40;99.90
18934;DHT22;9599;53.706;10.384;2023-03-31T09:18:16;12.40;99.90
18934;DHT22;9599;53.706;10.384;2023-03-31T09:20:49;12.40;99.90
18934;DHT22;9599;53.706;10.384;2023-03-31T09:23:23;12.50;99.90
18934;DHT22;9599;53.706;10.384;2023-03-31T09:25:54;12.60;99.90
18934;DHT22;9599;53.706;10.384;2023-03-31T09:28:28;12.50;99.90
18934;DHT22;9599;53.706;10.384;2023-03-31T09:30:58;12.50;99.90
18934;DHT22;9599;53.706;10.384;2023-03-31T09:33:27;12.50;99.90
18934;DHT22;9599;53.706;10.384;2023-03-31T09:35:59;12.60;99.90
18934;DHT22;9599;53.706;10.384;2023-03-31T09:38:28;12.50;99.90
18934;DHT22;9599;53.706;10.384;2023-03-31T09:40:57;12.30;99.90
18934;DHT22;9599;53.706;10.384;2023-03-31T09:43:27;12.20;99.90
18934;DHT22;9599;53.706;10.384;2023-03-31T09:45:56;12.30;99.90
18934;DHT22;9599;53.706;10.384;2023-03-31T09:48:49;12.30;99.90
18934;DHT22;9599;53.706;10.384;2023-03-31T09:51:25;12.30;99.90
18934;DHT22;9599;53.706;10.384;2023-03-31T09:54:00;12.20;99.90
18934;DHT22;9599;53.706;10.384;2023-03-31T09:56:45;12.30;99.90
18934;DHT22;9599;53.706;10.384;2023-03-31T09:59:17;12.40;99.90
18934;DHT22;9599;53.706;10.384;2023-03-31T10:01:46;12.50;99.90
18934;DHT22;9599;53.706;10.384;2023-03-31T10:04:20;12.50;99.90
18934;DHT22;9599;53.706;10.384;2023-03-31T10:06:51;12.60;99.90
18934;DHT22;9599;53.706;10.384;2023-03-31T10:09:20;12.60;99.90
18934;DHT22;9599;53.706;10.384;2023-03-31T10:11:54;12.70;99.90
18934;DHT22;9599;53.706;10.384;2023-03-31T10:14:33;12.70;99.90
18934;DHT22;9599;53.706;10.384;2023-03-31T10:17:05;12.60;99.90
18934;DHT22;9599;53.706;10.384;2023-03-31T10:19:34;12.60;99.90
18934;DHT22;9599;53.706;10.384;2023-03-31T10:22:06;12.60;99.90
18934;DHT22;9599;53.706;10.384;2023-03-31T10:24:42;12.70;99.90
18934;DHT22;9599;53.706;10.384;2023-03-31T10:27:19;12.80;99.90
18934;DHT22;9599;53.706;10.384;2023-03-31T10:29:51;12.90;99.90
18934;DHT22;9599;53.706;10.384;2023-03-31T10:32:23;12.80;99.90
18934;DHT22;9599;53.706;10.384;2023-03-31T10:34:55;12.90;99.90
18934;DHT22;9599;53.706;10.384;2023-03-31T10:37:26;12.90;99.90
18934;DHT22;9599;53.706;10.384;2023-03-31T10:39:59;12.90;99.90
18934;DHT22;9599;53.706;10.384;2023-03-31T10:42:31;13.10;99.90
18934;DHT22;9599;53.706;10.384;2023-03-31T10:45:17;13.20;99.90
18934;DHT22;9599;53.706;10.384;2023-03-31T10:48:09;13.20;99.90
18934;DHT22;9599;53.706;10.384;2023-03-31T10:50:43;13.30;99.90
18934;DHT22;9599;53.706;10.384;2023-03-31T10:53:14;13.50;99.90
18934;DHT22;9599;53.706;10.384;2023-03-31T10:55:51;13.60;99.90
18934;DHT22;9599;53.706;10.384;2023-03-31T10:58:31;13.50;99.90
18934;DHT22;9599;53.706;10.384;2023-03-31T11:01:10;13.40;99.90
18934;DHT22;9599;53.706;10.384;2023-03-31T11:03:52;13.40;99.90
18934;DHT22;9599;53.706;10.384;2023-03-31T11:06:27;13.40;99.90
18934;DHT22;9599;53.706;10.384;2023-03-31T11:09:06;13.30;99.90
18934;DHT22;9599;53.706;10.384;2023-03-31T11:11:57;13.30;99.90
18934;DHT22;9599;53.706;10.384;2023-03-31T11:14:37;13.30;99.90
18934;DHT22;9599;53.706;10.384;2023-03-31T11:17:18;13.30;99.90
18934;DHT22;9599;53.706;10.384;2023-03-31T11:19:54;13.40;99.90
18934;DHT22;9599;53.706;10.384;2023-03-31T11:22:32;13.60;99.90
18934;DHT22;9599;53.706;10.384;2023-03-31T11:25:14;13.60;99.90
18934;DHT22;9599;53.706;10.384;2023-03-31T11:28:02;13.60;99.90
18934;DHT22;9599;53.706;10.384;2023-03-31T11:30:36;13.50;99.90
18934;DHT22;9599;53.706;10.384;2023-03-31T11:36:13;13.80;99.90
18934;DHT22;9599;53.706;10.384;2023-03-31T11:38:53;13.80;99.90
18934;DHT22;9599;53.706;10.384;2023-03-31T11:41:32;13.80;99.90
18934;DHT22;9599;53.706;10.384;2023-03-31T11:44:05;13.90;99.90
18934;DHT22;9599;53.706;10.384;2023-03-31T11:46:38;13.70;99.90
18934;DHT22;9599;53.706;10.384;2023-03-31T11:49:14;13.70;99.90
18934;DHT22;9599;53.706;10.384;2023-03-31T11:51:49;13.80;99.90
18934;DHT22;9599;53.706;10.384;2023-03-31T11:54:23;13.80;99.90
18934;DHT22;9599;53.706;10.384;2023-03-31T11:56:54;13.70;99.90
18934;DHT22;9599;53.706;10.384;2023-03-31T11:59:24;13.70;99.90
18934;DHT22;9599;53.706;10.384;2023-03-31T12:02:01;13.60;99.90
18934;DHT22;9599;53.706;10.384;2023-03-31T12:04:34;13.70;99.90
18934;DHT22;9599;53.706;10.384;2023-03-31T12:07:19;13.60;99.90
18934;DHT22;9599;53.706;10.384;2023-03-31T12:09:54;13.50;99.90
18934;DHT22;9599;53.706;10.384;2023-03-31T12:12:32;13.50;99.90
18934;DHT22;9599;53.706;10.384;2023-03-31T12:15:09;13.50;99.90
18934;DHT22;9599;53.706;10.384;2023-03-31T12:17:40;13.50;99.90
18934;DHT22;9599;53.706;10.384;2023-03-31T12:20:14;13.60;99.90
18934;DHT22;9599;53.706;10.384;2023-03-31T12:22:46;13.60;99.90
18934;DHT22;9599;53.706;10.384;2023-03-31T12:25:18;13.60;99.90
18934;DHT22;9599;53.706;10.384;2023-03-31T12:27:49;13.60;99.90
18934;DHT22;9599;53.706;10.384;2023-03-31T12:30:27;13.70;99.90
18934;DHT22;9599;53.706;10.384;2023-03-31T12:33:02;13.80;99.90
18934;DHT22;9599;53.706;10.384;2023-03-31T12:35:41;13.90;99.90
18934;DHT22;9599;53.706;10.384;2023-03-31T12:38:25;13.90;99.90
18934;DHT22;9599;53.706;10.384;2023-03-31T12:41:01;13.80;99.90
18934;DHT22;9599;53.706;10.384;2023-03-31T12:43:51;13.80;99.90
18934;DHT22;9599;53.706;10.384;2023-03-31T12:46:40;13.70;99.90
18934;DHT22;9599;53.706;10.384;2023-03-31T12:49:19;13.60;99.90
18934;DHT22;9599;53.706;10.384;2023-03-31T12:51:57;13.50;99.90
18934;DHT22;9599;53.706;10.384;2023-03-31T12:54:35;13.50;99.90
18934;DHT22;9599;53.706;10.384;2023-03-31T12:57:13;13.50;99.90
18934;DHT22;9599;53.706;10.384;2023-03-31T13:00:22;13.50;99.90
18934;DHT22;9599;53.706;10.384;2023-03-31T13:05:59;13.40;99.90
18934;DHT22;9599;53.706;10.384;2023-03-31T13:08:50;13.30;99.90
18934;DHT22;9599;53.706;10.384;2023-03-31T13:11:19;13.30;99.90
18934;DHT22;9599;53.706;10.384;2023-03-31T13:13:58;13.30;99.90
18934;DHT22;9599;53.706;10.384;2023-03-31T13:16:28;13.20;99.90
18934;DHT22;9599;53.706;10.384;2023-03-31T13:18:57;13.20;99.90
18934;DHT22;9599;53.706;10.384;2023-03-31T13:21:25;13.10;99.90
18934;DHT22;9599;53.706;10.384;2023-03-31T13:23:58;13.00;99.90
18934;DHT22;9599;53.706;10.384;2023-03-31T13:26:44;13.00;99.90
18934;DHT22;9599;53.706;10.384;2023-03-31T13:29:22;13.00;99.90
18934;DHT22;9599;53.706;10.384;2023-03-31T13:34:57;13.00;99.90
18934;DHT22;9599;53.706;10.384;2023-03-31T13:37:51;13.00;99.90
18934;DHT22;9599;53.706;10.384;2023-03-31T13:43:47;13.10;99.90
18934;DHT22;9599;53.706;10.384;2023-03-31T13:49:49;13.30;99.90
18934;DHT22;9599;53.706;10.384;2023-03-31T13:52:33;13.50;99.90
18934;DHT22;9599;53.706;10.384;2023-03-31T13:55:29;13.50;99.90
18934;DHT22;9599;53.706;10.384;2023-03-31T13:58:28;13.70;99.90
18934;DHT22;9599;53.706;10.384;2023-03-31T14:04:19;14.10;99.90
18934;DHT22;9599;53.706;10.384;2023-03-31T14:06:56;14.20;99.90
18934;DHT22;9599;53.706;10.384;2023-03-31T14:09:29;14.40;99.90
18934;DHT22;9599;53.706;10.384;2023-03-31T14:11:58;14.40;99.90
18934;DHT22;9599;53.706;10.384;2023-03-31T14:14:26;14.20;99.90
18934;DHT22;9599;53.706;10.384;2023-03-31T14:16:58;14.20;99.90
18934;DHT22;9599;53.706;10.384;2023-03-31T14:19:53;14.10;99.90
18934;DHT22;9599;53.706;10.384;2023-03-31T14:22:32;14.20;99.90
18934;DHT22;9599;53.706;10.384;2023-03-31T14:25:12;14.10;99.90
18934;DHT22;9599;53.706;10.384;2023-03-31T14:27:52;14.10;99.90
18934;DHT22;9599;53.706;10.384;2023-03-31T14:30:32;14.00;99.90
18934;DHT22;9599;53.706;10.384;2023-03-31T14:33:15;13.90;99.90
18934;DHT22;9599;53.706;10.384;2023-03-31T14:35:52;13.90;99.90
18934;DHT22;9599;53.706;10.384;2023-03-31T14:38:27;14.00;99.90
18934;DHT22;9599;53.706;10.384;2023-03-31T14:40:55;13.90;99.90
18934;DHT22;9599;53.706;10.384;2023-03-31T14:43:28;13.80;99.90
18934;DHT22;9599;53.706;10.384;2023-03-31T14:46:00;13.80;99.90
18934;DHT22;9599;53.706;10.384;2023-03-31T14:48:31;13.80;99.90
18934;DHT22;9599;53.706;10.384;2023-03-31T14:51:01;13.80;99.90
18934;DHT22;9599;53.706;10.384;2023-03-31T14:53:31;13.70;99.90
18934;DHT22;9599;53.706;10.384;2023-03-31T14:56:04;13.70;99.90
18934;DHT22;9599;53.706;10.384;2023-03-31T14:58:35;13.70;99.90
18934;DHT22;9599;53.706;10.384;2023-03-31T15:01:06;13.60;99.90
18934;DHT22;9599;53.706;10.384;2023-03-31T15:03:37;13.60;99.90
18934;DHT22;9599;53.706;10.384;2023-03-31T15:06:08;13.70;99.90
18934;DHT22;9599;53.706;10.384;2023-03-31T15:08:39;13.80;99.90
18934;DHT22;9599;53.706;10.384;2023-03-31T15:11:11;13.90;99.90
18934;DHT22;9599;53.706;10.384;2023-03-31T15:13:46;13.90;99.90
18934;DHT22;9599;53.706;10.384;2023-03-31T15:16:34;13.90;99.90
18934;DHT22;9599;53.706;10.384;2023-03-31T15:19:09;13.90;99.90
18934;DHT22;9599;53.706;10.384;2023-03-31T15:21:38;13.90;99.90
18934;DHT22;9599;53.706;10.384;2023-03-31T15:24:10;13.80;99.90
18934;DHT22;9599;53.706;10.384;2023-03-31T15:26:43;13.80;99.90
18934;DHT22;9599;53.706;10.384;2023-03-31T15:29:18;13.80;99.90
18934;DHT22;9599;53.706;10.384;2023-03-31T15:31:47;13.80;99.90
18934;DHT22;9599;53.706;10.384;2023-03-31T15:34:20;14.00;99.90
18934;DHT22;9599;53.706;10.384;2023-03-31T15:36:53;14.10;99.90
18934;DHT22;9599;53.706;10.384;2023-03-31T15:39:23;14.20;99.90
18934;DHT22;9599;53.706;10.384;2023-03-31T15:41:53;14.10;99.90
18934;DHT22;9599;53.706;10.384;2023-03-31T15:44:34;14.00;99.90
18934;DHT22;9599;53.706;10.384;2023-03-31T15:47:11;14.00;99.90
18934;DHT22;9599;53.706;10.384;2023-03-31T15:49:47;13.90;99.90
18934;DHT22;9599;53.706;10.384;2023-03-31T15:52:24;13.90;99.90
18934;DHT22;9599;53.706;10.384;2023-03-31T15:54:56;13.90;99.90
18934;DHT22;9599;53.706;10.384;2023-03-31T15:57:31;14.10;99.90
18934;DHT22;9599;53.706;10.384;2023-03-31T16:00:01;14.30;99.90
18934;DHT22;9599;53.706;10.384;2023-03-31T16:02:42;14.30;99.90
18934;DHT22;9599;53.706;10.384;2023-03-31T16:05:23;14.30;99.90
18934;DHT22;9599;53.706;10.384;2023-03-31T16:08:01;14.40;99.90
18934;DHT22;9599;53.706;10.384;2023-03-31T16:10:31;14.40;99.90
18934;DHT22;9599;53.706;10.384;2023-03-31T16:13:03;14.50;99.90
18934;DHT22;9599;53.706;10.384;2023-03-31T16:15:35;14.60;99.90
18934;DHT22;9599;53.706;10.384;2023-03-31T16:18:06;14.70;99.90
18934;DHT22;9599;53.706;10.384;2023-03-31T16:20:38;14.70;99.90
18934;DHT22;9599;53.706;10.384;2023-03-31T16:23:14;14.80;99.90
18934;DHT22;9599;53.706;10.384;2023-03-31T16:25:44;14.80;99.90
18934;DHT22;9599;53.706;10.384;2023-03-31T16:28:15;14.80;99.90
18934;DHT22;9599;53.706;10.384;2023-03-31T16:30:46;14.70;99.90